TimeAKST,TemperatureF,Dew PointF,Humidity,Sea Level PressureIn,VisibilityMPH,Wind Direction,Wind SpeedMPH,Gust SpeedMPH,PrecipitationIn,Events,Conditions,WindDirDegrees,DateUTC
12:53 AM,3.9,-0.0,84,30.01,10.0,North,3.5,-,N/A,,Partly Cloudy,350,2012-12-02 09:53:00
1:53 AM,1.9,-2.9,80,30.02,10.0,Calm,Calm,-,N/A,,Partly Cloudy,0,2012-12-02 10:53:00
3:53 AM,7.0,-2.0,67,30.04,10.0,Variable,4.6,-,N/A,,Scattered Clouds,0,2012-12-02 12:53:00
4:53 AM,8.1,-2.0,64,30.05,10.0,NW,6.9,-,N/A,,Scattered Clouds,310,2012-12-02 13:53:00
5:53 AM,6.1,-2.9,67,30.06,10.0,Calm,Calm,-,N/A,,Scattered Clouds,0,2012-12-02 14:53:00
6:53 AM,8.1,-4.0,58,30.07,10.0,Calm,Calm,-,N/A,,Scattered Clouds,0,2012-12-02 15:53:00
7:53 AM,10.0,-5.1,51,30.08,10.0,WNW,5.8,-,N/A,,Scattered Clouds,290,2012-12-02 16:53:00
8:53 AM,12.9,-2.9,49,30.09,10.0,North,11.5,-,N/A,,Clear,350,2012-12-02 17:53:00
9:53 AM,12.0,-0.0,59,30.09,10.0,North,11.5,-,N/A,,Clear,360,2012-12-02 18:53:00
10:53 AM,12.0,-0.0,59,30.10,10.0,NNW,4.6,-,N/A,,Clear,330,2012-12-02 19:53:00
11:53 AM,5.0,-4.0,66,30.13,10.0,NNW,4.6,-,N/A,,Clear,330,2012-12-02 20:53:00
12:53 PM,6.1,-2.9,67,30.13,10.0,Calm,Calm,-,N/A,,Clear,0,2012-12-02 21:53:00
1:53 PM,10.9,-0.9,59,30.14,10.0,Calm,Calm,-,N/A,,Clear,0,2012-12-02 22:53:00
2:53 PM,15.1,1.9,56,30.13,10.0,NW,5.8,-,N/A,,Clear,320,2012-12-02 23:53:00
3:53 PM,15.1,1.9,56,30.14,10.0,West,5.8,-,N/A,,Clear,280,2012-12-03 00:53:00
4:53 PM,12.0,1.0,61,30.15,10.0,West,8.1,-,N/A,,Scattered Clouds,270,2012-12-03 01:53:00
5:53 PM,12.0,-0.9,56,30.17,10.0,North,12.7,-,N/A,,Scattered Clouds,350,2012-12-03 02:53:00
6:53 PM,9.0,-2.0,61,30.15,10.0,NNW,9.2,-,N/A,,Partly Cloudy,340,2012-12-03 03:53:00
7:53 PM,5.0,-2.0,73,30.17,10.0,East,6.9,-,N/A,,Partly Cloudy,100,2012-12-03 04:53:00
8:53 PM,3.9,-4.0,70,30.19,10.0,Calm,Calm,-,N/A,,Partly Cloudy,0,2012-12-03 05:53:00
9:53 PM,1.9,-5.1,72,30.22,10.0,Calm,Calm,-,N/A,,Partly Cloudy,0,2012-12-03 06:53:00
10:53 PM,1.0,-5.1,75,30.23,10.0,Calm,Calm,-,N/A,,Clear,0,2012-12-03 07:53:00
11:53 PM,1.9,-5.1,72,30.25,10.0,NNW,9.2,-,N/A,,Clear,330,2012-12-03 08:53:00